sensor_id;sensor_type;location;lat;lon;timestamp;temperature;humidity
31619;DHT22;18230;51.502;7.108;2023-07-20T00:02:39;18.90;99.90
31619;DHT22;18230;51.502;7.108;2023-07-20T00:07:40;18.90;99.90
31619;DHT22;18230;51.502;7.108;2023-07-20T00:12:41;18.90;99.90
31619;DHT22;18230;51.502;7.108;2023-07-20T00:17:41;18.90;99.90
31619;DHT22;18230;51.502;7.108;2023-07-20T00:22:42;19.00;99.90
31619;DHT22;18230;51.502;7.108;2023-07-20T00:27:43;19.00;99.90
31619;DHT22;18230;51.502;7.108;2023-07-20T00:32:43;19.00;99.90
31619;DHT22;18230;51.502;7.108;2023-07-20T00:37:44;19.10;99.90
31619;DHT22;18230;51.502;7.108;2023-07-20T00:42:45;19.10;99.90
31619;DHT22;18230;51.502;7.108;2023-07-20T00:47:46;19.10;99.90
31619;DHT22;18230;51.502;7.108;2023-07-20T00:52:47;19.00;99.90
31619;DHT22;18230;51.502;7.108;2023-07-20T00:57:48;19.00;99.90
31619;DHT22;18230;51.502;7.108;2023-07-20T01:02:48;18.90;99.90
31619;DHT22;18230;51.502;7.108;2023-07-20T01:08:00;18.90;99.90
31619;DHT22;18230;51.502;7.108;2023-07-20T01:13:03;18.90;99.90
31619;DHT22;18230;51.502;7.108;2023-07-20T01:18:05;18.90;99.90
31619;DHT22;18230;51.502;7.108;2023-07-20T01:33:58;18.90;99.90
31619;DHT22;18230;51.502;7.108;2023-07-20T01:39:02;18.80;99.90
31619;DHT22;18230;51.502;7.108;2023-07-20T01:44:04;18.70;99.90
31619;DHT22;18230;51.502;7.108;2023-07-20T01:49:05;18.70;99.90
31619;DHT22;18230;51.502;7.108;2023-07-20T01:54:05;18.70;99.90
31619;DHT22;18230;51.502;7.108;2023-07-20T01:59:06;18.60;99.90
31619;DHT22;18230;51.502;7.108;2023-07-20T02:04:10;18.60;99.90
31619;DHT22;18230;51.502;7.108;2023-07-20T02:09:11;18.60;99.90
31619;DHT22;18230;51.502;7.108;2023-07-20T02:14:11;18.60;99.90
31619;DHT22;18230;51.502;7.108;2023-07-20T02:19:14;18.50;99.90
31619;DHT22;18230;51.502;7.108;2023-07-20T02:24:15;18.40;99.90
31619;DHT22;18230;51.502;7.108;2023-07-20T02:29:28;18.30;99.90
31619;DHT22;18230;51.502;7.108;2023-07-20T02:34:28;17.90;99.90
31619;DHT22;18230;51.502;7.108;2023-07-20T02:39:29;17.60;99.90
31619;DHT22;18230;51.502;7.108;2023-07-20T02:44:30;17.40;99.90
31619;DHT22;18230;51.502;7.108;2023-07-20T02:49:31;17.30;99.90
31619;DHT22;18230;51.502;7.108;2023-07-20T02:54:31;17.30;99.90
31619;DHT22;18230;51.502;7.108;2023-07-20T02:59:32;17.30;99.90
31619;DHT22;18230;51.502;7.108;2023-07-20T03:04:33;17.30;99.90
31619;DHT22;18230;51.502;7.108;2023-07-20T03:09:34;17.30;99.90
31619;DHT22;18230;51.502;7.108;2023-07-20T03:14:34;17.30;99.90
31619;DHT22;18230;51.502;7.108;2023-07-20T03:19:35;17.30;99.90
31619;DHT22;18230;51.502;7.108;2023-07-20T03:24:36;17.40;99.90
31619;DHT22;18230;51.502;7.108;2023-07-20T03:29:36;17.40;99.90
31619;DHT22;18230;51.502;7.108;2023-07-20T03:34:37;17.40;99.90
31619;DHT22;18230;51.502;7.108;2023-07-20T03:39:38;17.30;99.90
31619;DHT22;18230;51.502;7.108;2023-07-20T03:44:38;17.30;99.90
31619;DHT22;18230;51.502;7.108;2023-07-20T03:49:39;17.30;99.90
31619;DHT22;18230;51.502;7.108;2023-07-20T03:54:40;17.20;99.90
31619;DHT22;18230;51.502;7.108;2023-07-20T03:59:45;17.20;99.90
31619;DHT22;18230;51.502;7.108;2023-07-20T04:04:46;17.30;99.90
31619;DHT22;18230;51.502;7.108;2023-07-20T04:09:47;17.30;99.90
31619;DHT22;18230;51.502;7.108;2023-07-20T04:14:47;17.20;99.90
31619;DHT22;18230;51.502;7.108;2023-07-20T04:19:48;17.20;99.90
31619;DHT22;18230;51.502;7.108;2023-07-20T04:24:49;17.30;99.90
31619;DHT22;18230;51.502;7.108;2023-07-20T04:29:49;17.30;99.90
31619;DHT22;18230;51.502;7.108;2023-07-20T04:34:50;17.30;99.90
31619;DHT22;18230;51.502;7.108;2023-07-20T04:39:51;17.30;99.90
31619;DHT22;18230;51.502;7.108;2023-07-20T04:44:51;17.30;99.90
31619;DHT22;18230;51.502;7.108;2023-07-20T04:49:52;17.30;99.90
31619;DHT22;18230;51.502;7.108;2023-07-20T04:54:53;17.50;99.90
31619;DHT22;18230;51.502;7.108;2023-07-20T04:59:53;17.50;99.90
31619;DHT22;18230;51.502;7.108;2023-07-20T05:04:54;17.50;99.90
31619;DHT22;18230;51.502;7.108;2023-07-20T05:09:55;17.50;99.90
31619;DHT22;18230;51.502;7.108;2023-07-20T05:14:55;17.50;99.90
31619;DHT22;18230;51.502;7.108;2023-07-20T05:19:56;17.50;99.90
31619;DHT22;18230;51.502;7.108;2023-07-20T05:24:57;17.50;99.90
31619;DHT22;18230;51.502;7.108;2023-07-20T05:29:57;17.40;99.90
31619;DHT22;18230;51.502;7.108;2023-07-20T05:34:59;17.40;99.90
31619;DHT22;18230;51.502;7.108;2023-07-20T05:39:59;17.50;99.90
31619;DHT22;18230;51.502;7.108;2023-07-20T05:45:00;17.60;99.90
31619;DHT22;18230;51.502;7.108;2023-07-20T05:50:01;17.60;99.90
31619;DHT22;18230;51.502;7.108;2023-07-20T05:55:01;17.60;99.90
31619;DHT22;18230;51.502;7.108;2023-07-20T06:00:04;17.50;99.90
31619;DHT22;18230;51.502;7.108;2023-07-20T06:05:05;17.70;99.90
31619;DHT22;18230;51.502;7.108;2023-07-20T06:10:06;17.90;99.90
31619;DHT22;18230;51.502;7.108;2023-07-20T06:15:24;18.00;99.90
31619;DHT22;18230;51.502;7.108;2023-07-20T06:20:26;18.30;99.90
31619;DHT22;18230;51.502;7.108;2023-07-20T06:25:27;19.00;99.90
31619;DHT22;18230;51.502;7.108;2023-07-20T06:30:27;19.10;99.90
31619;DHT22;18230;51.502;7.108;2023-07-20T06:35:28;19.50;99.90
31619;DHT22;18230;51.502;7.108;2023-07-20T06:40:30;19.70;99.90
31619;DHT22;18230;51.502;7.108;2023-07-20T06:45:31;20.10;99.90
31619;DHT22;18230;51.502;7.108;2023-07-20T06:50:31;20.40;99.90
31619;DHT22;18230;51.502;7.108;2023-07-20T06:55:32;20.50;99.90
31619;DHT22;18230;51.502;7.108;2023-07-20T07:00:33;21.10;99.90
31619;DHT22;18230;51.502;7.108;2023-07-20T07:05:37;21.20;99.90
31619;DHT22;18230;51.502;7.108;2023-07-20T07:10:38;21.20;99.90
31619;DHT22;18230;51.502;7.108;2023-07-20T07:15:38;21.40;99.90
31619;DHT22;18230;51.502;7.108;2023-07-20T07:20:39;21.40;99.90
31619;DHT22;18230;51.502;7.108;2023-07-20T07:25:42;21.10;99.90
31619;DHT22;18230;51.502;7.108;2023-07-20T07:30:42;20.80;99.90
31619;DHT22;18230;51.502;7.108;2023-07-20T07:35:43;20.30;99.90
31619;DHT22;18230;51.502;7.108;2023-07-20T07:40:44;20.00;99.90
31619;DHT22;18230;51.502;7.108;2023-07-20T07:45:45;19.80;99.90
31619;DHT22;18230;51.502;7.108;2023-07-20T07:50:45;19.80;99.90
31619;DHT22;18230;51.502;7.108;2023-07-20T07:55:48;20.20;99.90
31619;DHT22;18230;51.502;7.108;2023-07-20T08:00:49;20.70;99.90
31619;DHT22;18230;51.502;7.108;2023-07-20T08:05:49;21.10;99.90
31619;DHT22;18230;51.502;7.108;2023-07-20T08:10:53;20.90;99.90
31619;DHT22;18230;51.502;7.108;2023-07-20T08:15:58;20.50;99.90
31619;DHT22;18230;51.502;7.108;2023-07-20T08:21:00;20.20;99.90
31619;DHT22;18230;51.502;7.108;2023-07-20T08:26:00;20.00;99.90
31619;DHT22;18230;51.502;7.108;2023-07-20T08:31:01;20.00;99.90
31619;DHT22;18230;51.502;7.108;2023-07-20T08:36:03;20.10;99.90
31619;DHT22;18230;51.502;7.108;2023-07-20T08:41:04;20.50;99.90
31619;DHT22;18230;51.502;7.108;2023-07-20T08:46:05;20.90;99.90
31619;DHT22;18230;51.502;7.108;2023-07-20T08:51:06;21.30;99.90
31619;DHT22;18230;51.502;7.108;2023-07-20T08:56:07;21.30;99.90
31619;DHT22;18230;51.502;7.108;2023-07-20T09:01:11;21.10;99.90
31619;DHT22;18230;51.502;7.108;2023-07-20T09:06:15;20.90;99.90
31619;DHT22;18230;51.502;7.108;2023-07-20T09:11:16;20.60;99.90
31619;DHT22;18230;51.502;7.108;2023-07-20T09:16:17;21.00;99.90
31619;DHT22;18230;51.502;7.108;2023-07-20T09:21:18;21.60;99.90
31619;DHT22;18230;51.502;7.108;2023-07-20T09:26:19;21.90;99.90
31619;DHT22;18230;51.502;7.108;2023-07-20T09:31:22;21.40;99.90
31619;DHT22;18230;51.502;7.108;2023-07-20T09:36:23;21.60;99.90
31619;DHT22;18230;51.502;7.108;2023-07-20T09:41:23;21.80;99.90
31619;DHT22;18230;51.502;7.108;2023-07-20T09:46:24;22.00;99.90
31619;DHT22;18230;51.502;7.108;2023-07-20T09:51:25;22.30;99.90
31619;DHT22;18230;51.502;7.108;2023-07-20T09:56:27;22.10;99.90
31619;DHT22;18230;51.502;7.108;2023-07-20T10:01:29;21.80;99.90
31619;DHT22;18230;51.502;7.108;2023-07-20T10:06:32;22.10;99.90
31619;DHT22;18230;51.502;7.108;2023-07-20T10:11:36;22.50;99.90
31619;DHT22;18230;51.502;7.108;2023-07-20T10:16:43;22.40;99.90
31619;DHT22;18230;51.502;7.108;2023-07-20T10:21:55;22.50;99.90
31619;DHT22;18230;51.502;7.108;2023-07-20T10:26:57;22.70;99.90
31619;DHT22;18230;51.502;7.108;2023-07-20T10:31:58;23.10;99.90
31619;DHT22;18230;51.502;7.108;2023-07-20T10:36:59;23.40;99.90
31619;DHT22;18230;51.502;7.108;2023-07-20T10:42:06;23.20;99.90
31619;DHT22;18230;51.502;7.108;2023-07-20T10:47:12;22.70;99.90
31619;DHT22;18230;51.502;7.108;2023-07-20T10:52:13;22.50;99.90
31619;DHT22;18230;51.502;7.108;2023-07-20T10:57:32;22.60;99.90
31619;DHT22;18230;51.502;7.108;2023-07-20T11:07:45;23.30;99.90
31619;DHT22;18230;51.502;7.108;2023-07-20T11:18:16;23.90;99.90
31619;DHT22;18230;51.502;7.108;2023-07-20T11:23:17;24.20;99.90
31619;DHT22;18230;51.502;7.108;2023-07-20T11:28:19;24.40;99.90
31619;DHT22;18230;51.502;7.108;2023-07-20T11:33:20;24.50;99.90
31619;DHT22;18230;51.502;7.108;2023-07-20T11:38:21;24.00;99.90
31619;DHT22;18230;51.502;7.108;2023-07-20T11:43:23;23.80;99.90
31619;DHT22;18230;51.502;7.108;2023-07-20T11:48:24;24.20;99.90
31619;DHT22;18230;51.502;7.108;2023-07-20T11:53:25;24.30;99.90
31619;DHT22;18230;51.502;7.108;2023-07-20T11:58:28;24.20;99.90
31619;DHT22;18230;51.502;7.108;2023-07-20T12:03:29;24.30;99.90
31619;DHT22;18230;51.502;7.108;2023-07-20T12:08:30;24.40;99.40
31619;DHT22;18230;51.502;7.108;2023-07-20T12:13:43;24.30;98.90
31619;DHT22;18230;51.502;7.108;2023-07-20T12:18:45;24.70;98.30
31619;DHT22;18230;51.502;7.108;2023-07-20T12:23:45;24.80;98.80
31619;DHT22;18230;51.502;7.108;2023-07-20T12:28:46;24.90;98.40
31619;DHT22;18230;51.502;7.108;2023-07-20T12:33:47;24.90;95.60
31619;DHT22;18230;51.502;7.108;2023-07-20T12:38:47;25.00;97.40
31619;DHT22;18230;51.502;7.108;2023-07-20T12:43:48;25.30;96.80
31619;DHT22;18230;51.502;7.108;2023-07-20T12:48:50;25.20;95.20
31619;DHT22;18230;51.502;7.108;2023-07-20T12:53:50;25.40;94.80
31619;DHT22;18230;51.502;7.108;2023-07-20T12:58:51;25.10;94.80
31619;DHT22;18230;51.502;7.108;2023-07-20T13:03:52;25.00;93.70
31619;DHT22;18230;51.502;7.108;2023-07-20T13:08:53;24.70;94.10
31619;DHT22;18230;51.502;7.108;2023-07-20T13:13:56;24.70;95.90
31619;DHT22;18230;51.502;7.108;2023-07-20T13:18:57;24.50;95.50
31619;DHT22;18230;51.502;7.108;2023-07-20T13:23:58;24.40;95.70
31619;DHT22;18230;51.502;7.108;2023-07-20T13:28:58;24.70;94.60
31619;DHT22;18230;51.502;7.108;2023-07-20T13:33:59;24.80;94.10
31619;DHT22;18230;51.502;7.108;2023-07-20T13:39:00;24.90;93.90
31619;DHT22;18230;51.502;7.108;2023-07-20T13:44:00;25.20;93.50
31619;DHT22;18230;51.502;7.108;2023-07-20T13:49:01;25.10;92.90
31619;DHT22;18230;51.502;7.108;2023-07-20T13:54:02;24.70;92.80
31619;DHT22;18230;51.502;7.108;2023-07-20T13:59:03;24.50;92.70
31619;DHT22;18230;51.502;7.108;2023-07-20T14:04:03;24.50;93.00
31619;DHT22;18230;51.502;7.108;2023-07-20T14:09:04;24.60;92.70
31619;DHT22;18230;51.502;7.108;2023-07-20T14:14:05;25.00;93.30
31619;DHT22;18230;51.502;7.108;2023-07-20T14:19:05;24.80;92.60
31619;DHT22;18230;51.502;7.108;2023-07-20T14:24:06;24.90;93.30
31619;DHT22;18230;51.502;7.108;2023-07-20T14:29:07;25.00;92.50
31619;DHT22;18230;51.502;7.108;2023-07-20T14:34:09;25.20;92.30
31619;DHT22;18230;51.502;7.108;2023-07-20T14:39:09;25.10;92.10
31619;DHT22;18230;51.502;7.108;2023-07-20T14:44:10;25.70;92.10
31619;DHT22;18230;51.502;7.108;2023-07-20T14:49:11;25.50;90.80
31619;DHT22;18230;51.502;7.108;2023-07-20T14:54:11;25.60;91.00
31619;DHT22;18230;51.502;7.108;2023-07-20T14:59:12;25.70;91.10
31619;DHT22;18230;51.502;7.108;2023-07-20T15:04:14;25.50;90.20
31619;DHT22;18230;51.502;7.108;2023-07-20T15:09:15;26.10;89.80
31619;DHT22;18230;51.502;7.108;2023-07-20T15:14:16;26.70;84.80
31619;DHT22;18230;51.502;7.108;2023-07-20T15:19:17;27.00;82.40
31619;DHT22;18230;51.502;7.108;2023-07-20T15:24:17;26.80;82.10
31619;DHT22;18230;51.502;7.108;2023-07-20T15:29:18;26.50;82.90
31619;DHT22;18230;51.502;7.108;2023-07-20T15:34:19;26.60;84.50
31619;DHT22;18230;51.502;7.108;2023-07-20T15:39:20;26.40;83.70
31619;DHT22;18230;51.502;7.108;2023-07-20T15:44:21;26.00;84.20
31619;DHT22;18230;51.502;7.108;2023-07-20T15:49:22;25.90;85.00
31619;DHT22;18230;51.502;7.108;2023-07-20T15:54:24;25.90;84.50
31619;DHT22;18230;51.502;7.108;2023-07-20T15:59:26;26.00;84.20
31619;DHT22;18230;51.502;7.108;2023-07-20T16:04:28;26.10;85.90
31619;DHT22;18230;51.502;7.108;2023-07-20T16:09:30;26.20;86.40
31619;DHT22;18230;51.502;7.108;2023-07-20T16:14:32;26.70;84.80
31619;DHT22;18230;51.502;7.108;2023-07-20T16:19:32;27.20;81.70
31619;DHT22;18230;51.502;7.108;2023-07-20T16:24:33;27.40;80.20
31619;DHT22;18230;51.502;7.108;2023-07-20T16:29:34;27.90;80.00
31619;DHT22;18230;51.502;7.108;2023-07-20T16:34:35;28.10;76.10
31619;DHT22;18230;51.502;7.108;2023-07-20T16:39:36;28.20;75.30
31619;DHT22;18230;51.502;7.108;2023-07-20T16:44:40;28.20;74.50
31619;DHT22;18230;51.502;7.108;2023-07-20T16:49:41;28.50;74.30
31619;DHT22;18230;51.502;7.108;2023-07-20T16:54:42;28.40;72.70
31619;DHT22;18230;51.502;7.108;2023-07-20T16:59:42;28.50;71.50
31619;DHT22;18230;51.502;7.108;2023-07-20T17:04:47;28.40;70.80
31619;DHT22;18230;51.502;7.108;2023-07-20T17:09:48;28.70;69.40
31619;DHT22;18230;51.502;7.108;2023-07-20T17:14:49;28.60;71.00
31619;DHT22;18230;51.502;7.108;2023-07-20T17:19:50;28.10;70.60
31619;DHT22;18230;51.502;7.108;2023-07-20T17:24:51;27.80;71.20
31619;DHT22;18230;51.502;7.108;2023-07-20T17:29:51;27.70;70.80
31619;DHT22;18230;51.502;7.108;2023-07-20T17:34:54;27.80;71.50
31619;DHT22;18230;51.502;7.108;2023-07-20T17:39:55;28.10;70.40
31619;DHT22;18230;51.502;7.108;2023-07-20T17:44:56;28.10;69.70
31619;DHT22;18230;51.502;7.108;2023-07-20T17:49:57;28.00;69.20
31619;DHT22;18230;51.502;7.108;2023-07-20T17:54:58;27.90;69.80
31619;DHT22;18230;51.502;7.108;2023-07-20T18:00:00;27.70;70.60
31619;DHT22;18230;51.502;7.108;2023-07-20T18:05:01;27.40;71.90
31619;DHT22;18230;51.502;7.108;2023-07-20T18:10:01;27.10;73.40
31619;DHT22;18230;51.502;7.108;2023-07-20T18:15:05;26.90;73.30
31619;DHT22;18230;51.502;7.108;2023-07-20T18:20:06;26.60;75.50
31619;DHT22;18230;51.502;7.108;2023-07-20T18:25:07;26.00;78.40
31619;DHT22;18230;51.502;7.108;2023-07-20T18:30:08;25.50;79.60
31619;DHT22;18230;51.502;7.108;2023-07-20T18:35:10;25.10;82.90
31619;DHT22;18230;51.502;7.108;2023-07-20T18:40:12;25.10;84.90
31619;DHT22;18230;51.502;7.108;2023-07-20T18:45:12;25.00;86.50
31619;DHT22;18230;51.502;7.108;2023-07-20T18:50:14;24.90;87.80
31619;DHT22;18230;51.502;7.108;2023-07-20T18:55:15;24.80;88.10
31619;DHT22;18230;51.502;7.108;2023-07-20T19:00:16;24.70;89.20
31619;DHT22;18230;51.502;7.108;2023-07-20T19:05:18;24.60;90.00
31619;DHT22;18230;51.502;7.108;2023-07-20T19:10:19;24.60;90.40
31619;DHT22;18230;51.502;7.108;2023-07-20T19:15:20;24.40;91.00
31619;DHT22;18230;51.502;7.108;2023-07-20T19:20:20;24.40;90.90
31619;DHT22;18230;51.502;7.108;2023-07-20T19:25:21;24.30;91.60
31619;DHT22;18230;51.502;7.108;2023-07-20T19:30:22;24.30;92.10
31619;DHT22;18230;51.502;7.108;2023-07-20T19:35:23;24.20;92.80
31619;DHT22;18230;51.502;7.108;2023-07-20T19:40:23;24.10;93.60
31619;DHT22;18230;51.502;7.108;2023-07-20T19:45:24;23.90;94.50
31619;DHT22;18230;51.502;7.108;2023-07-20T19:50:26;23.90;95.10
31619;DHT22;18230;51.502;7.108;2023-07-20T19:55:26;23.80;95.90
31619;DHT22;18230;51.502;7.108;2023-07-20T20:00:27;23.70;96.70
31619;DHT22;18230;51.502;7.108;2023-07-20T20:05:28;23.60;97.50
31619;DHT22;18230;51.502;7.108;2023-07-20T20:10:30;23.50;97.70
31619;DHT22;18230;51.502;7.108;2023-07-20T20:15:30;23.40;98.70
31619;DHT22;18230;51.502;7.108;2023-07-20T20:20:32;23.30;99.70
31619;DHT22;18230;51.502;7.108;2023-07-20T20:25:35;23.30;99.90
31619;DHT22;18230;51.502;7.108;2023-07-20T20:30:37;23.30;99.90
31619;DHT22;18230;51.502;7.108;2023-07-20T20:35:38;23.20;99.90
31619;DHT22;18230;51.502;7.108;2023-07-20T20:40:45;23.20;99.90
31619;DHT22;18230;51.502;7.108;2023-07-20T20:45:49;23.00;99.90
31619;DHT22;18230;51.502;7.108;2023-07-20T20:50:50;23.00;99.90
31619;DHT22;18230;51.502;7.108;2023-07-20T20:55:51;23.00;99.90
31619;DHT22;18230;51.502;7.108;2023-07-20T21:00:51;22.90;99.90
31619;DHT22;18230;51.502;7.108;2023-07-20T21:05:52;22.80;99.90
31619;DHT22;18230;51.502;7.108;2023-07-20T21:10:57;22.70;99.90
31619;DHT22;18230;51.502;7.108;2023-07-20T21:15:58;22.70;99.90
31619;DHT22;18230;51.502;7.108;2023-07-20T21:20:59;22.50;99.90
31619;DHT22;18230;51.502;7.108;2023-07-20T21:25:59;22.30;99.90
31619;DHT22;18230;51.502;7.108;2023-07-20T21:31:02;21.70;99.90
31619;DHT22;18230;51.502;7.108;2023-07-20T21:36:03;21.10;99.90
31619;DHT22;18230;51.502;7.108;2023-07-20T21:41:06;20.90;99.90
31619;DHT22;18230;51.502;7.108;2023-07-20T21:46:07;20.90;99.90
31619;DHT22;18230;51.502;7.108;2023-07-20T21:51:07;20.90;99.90
31619;DHT22;18230;51.502;7.108;2023-07-20T21:56:08;20.80;99.90
31619;DHT22;18230;51.502;7.108;2023-07-20T22:01:09;20.70;99.90
31619;DHT22;18230;51.502;7.108;2023-07-20T22:06:10;20.60;99.90
31619;DHT22;18230;51.502;7.108;2023-07-20T22:11:10;20.30;99.90
31619;DHT22;18230;51.502;7.108;2023-07-20T22:16:11;20.30;99.90
31619;DHT22;18230;51.502;7.108;2023-07-20T22:21:12;20.30;99.90
31619;DHT22;18230;51.502;7.108;2023-07-20T22:26:13;20.10;99.90
31619;DHT22;18230;51.502;7.108;2023-07-20T22:31:13;20.10;99.90
31619;DHT22;18230;51.502;7.108;2023-07-20T22:36:14;20.10;99.90
31619;DHT22;18230;51.502;7.108;2023-07-20T22:41:15;20.10;99.90
31619;DHT22;18230;51.502;7.108;2023-07-20T22:46:15;20.00;99.90
31619;DHT22;18230;51.502;7.108;2023-07-20T22:51:17;20.00;99.90
31619;DHT22;18230;51.502;7.108;2023-07-20T22:56:18;20.00;99.90
31619;DHT22;18230;51.502;7.108;2023-07-20T23:01:19;20.00;99.90
31619;DHT22;18230;51.502;7.108;2023-07-20T23:06:19;19.70;99.90
31619;DHT22;18230;51.502;7.108;2023-07-20T23:11:21;19.70;99.90
31619;DHT22;18230;51.502;7.108;2023-07-20T23:16:24;19.80;99.90
31619;DHT22;18230;51.502;7.108;2023-07-20T23:21:24;19.60;99.90
31619;DHT22;18230;51.502;7.108;2023-07-20T23:26:25;19.60;99.90
31619;DHT22;18230;51.502;7.108;2023-07-20T23:31:26;19.40;99.90
31619;DHT22;18230;51.502;7.108;2023-07-20T23:36:27;19.30;99.90
31619;DHT22;18230;51.502;7.108;2023-07-20T23:41:28;19.10;99.90
31619;DHT22;18230;51.502;7.108;2023-07-20T23:46:28;19.10;99.90
31619;DHT22;18230;51.502;7.108;2023-07-20T23:51:31;18.90;99.90
31619;DHT22;18230;51.502;7.108;2023-07-20T23:56:31;18.80;99.90
